KNTD/NTD METAR and TAF weather

Enter ICAO airport designator
Station Type Date Time Source
KNTD METAR 2019/06/18 12:57 UTC NOAA

KNTD 181257Z 00000KT 5SM BR OVC016 17/15 A2993 RMK AO2 SLP135 T01720150 $


Station Type Date Time Source
KNTD Decoded METAR 2019/06/18 12:57 UTC NOAA

NAWCWPNS POINT MUGU, CA, CA, United States (KNTD) 34-07N 119-07W 2M
Jun 18, 2019 - 08:57 AM EDT / 2019.06.18 1257 UTC
Wind: Calm:0
Visibility: 5 mile(s):0
Sky conditions: overcast
Weather: mist
Temperature: 63.0 F (17.2 C)
Dew Point: 59.0 F (15.0 C)
Relative Humidity: 86%
Pressure (altimeter): 29.93 in. Hg (1013 hPa)
ob: KNTD 181257Z 00000KT 5SM BR OVC016 17/15 A2993 RMK AO2 SLP135 T01720150
cycle: 13

Station Type Date Time Source
KNTD TAF 2019/06/18 07:18 UTC NOAA

TAF KNTD 1807/1907 VRB06KT 8000 BR OVC015 QNH2988INS
BECMG 1808/1810 VRB06KT 6000 BR OVC012 QNH2986INS
BECMG 1818/1820 VRB06KT 9999 FEW012 SCT023 QNH2990INS
FM190200 24008KT 9999 BK012 BKN020 AUTOMATED SENSOR METWATCH 1807 TIL 1813 T15/1808Z T18/1822Z FS30058

Example: see airport list